sensor_id;sensor_type;location;lat;lon;timestamp;temperature;humidity
20957;DHT22;10637;47.970;7.830;2023-02-28T00:04:01;3.00;84.00
20957;DHT22;10637;47.970;7.830;2023-02-28T00:09:03;3.00;84.60
20957;DHT22;10637;47.970;7.830;2023-02-28T00:14:05;2.90;84.30
20957;DHT22;10637;47.970;7.830;2023-02-28T00:19:06;2.80;84.90
20957;DHT22;10637;47.970;7.830;2023-02-28T00:24:08;3.00;84.90
20957;DHT22;10637;47.970;7.830;2023-02-28T00:29:10;3.00;84.30
20957;DHT22;10637;47.970;7.830;2023-02-28T00:34:12;3.00;84.80
20957;DHT22;10637;47.970;7.830;2023-02-28T00:39:14;3.00;84.90
20957;DHT22;10637;47.970;7.830;2023-02-28T00:44:16;2.80;85.30
20957;DHT22;10637;47.970;7.830;2023-02-28T00:49:18;2.70;85.50
20957;DHT22;10637;47.970;7.830;2023-02-28T00:54:20;2.90;85.70
20957;DHT22;10637;47.970;7.830;2023-02-28T00:59:22;3.00;85.40
20957;DHT22;10637;47.970;7.830;2023-02-28T01:04:24;3.00;85.60
20957;DHT22;10637;47.970;7.830;2023-02-28T01:09:26;2.90;85.40
20957;DHT22;10637;47.970;7.830;2023-02-28T01:14:27;3.00;85.80
20957;DHT22;10637;47.970;7.830;2023-02-28T01:19:29;2.90;86.20
20957;DHT22;10637;47.970;7.830;2023-02-28T01:24:31;2.90;86.30
20957;DHT22;10637;47.970;7.830;2023-02-28T01:29:35;3.00;86.30
20957;DHT22;10637;47.970;7.830;2023-02-28T01:34:36;2.90;86.90
20957;DHT22;10637;47.970;7.830;2023-02-28T01:39:38;3.00;86.80
20957;DHT22;10637;47.970;7.830;2023-02-28T01:45:06;2.90;87.10
20957;DHT22;10637;47.970;7.830;2023-02-28T01:50:20;3.00;87.00
20957;DHT22;10637;47.970;7.830;2023-02-28T01:55:24;3.00;87.10
20957;DHT22;10637;47.970;7.830;2023-02-28T02:00:30;3.00;87.00
20957;DHT22;10637;47.970;7.830;2023-02-28T02:05:32;3.00;87.30
20957;DHT22;10637;47.970;7.830;2023-02-28T02:10:46;3.00;87.70
20957;DHT22;10637;47.970;7.830;2023-02-28T02:26:55;2.90;87.80
20957;DHT22;10637;47.970;7.830;2023-02-28T02:37:28;3.00;88.50
20957;DHT22;10637;47.970;7.830;2023-02-28T02:47:52;3.00;88.10
20957;DHT22;10637;47.970;7.830;2023-02-28T02:52:56;2.90;88.70
20957;DHT22;10637;47.970;7.830;2023-02-28T02:58:03;2.90;88.90
20957;DHT22;10637;47.970;7.830;2023-02-28T03:03:08;2.90;89.50
20957;DHT22;10637;47.970;7.830;2023-02-28T03:08:10;2.70;90.00
20957;DHT22;10637;47.970;7.830;2023-02-28T03:24:24;2.90;90.00
20957;DHT22;10637;47.970;7.830;2023-02-28T03:29:35;2.90;90.10
20957;DHT22;10637;47.970;7.830;2023-02-28T03:34:41;2.90;89.80
20957;DHT22;10637;47.970;7.830;2023-02-28T03:39:49;2.90;90.10
20957;DHT22;10637;47.970;7.830;2023-02-28T03:44:59;2.90;89.90
20957;DHT22;10637;47.970;7.830;2023-02-28T03:50:08;2.80;90.00
20957;DHT22;10637;47.970;7.830;2023-02-28T03:55:14;2.80;90.40
20957;DHT22;10637;47.970;7.830;2023-02-28T04:00:21;2.70;91.30
20957;DHT22;10637;47.970;7.830;2023-02-28T04:05:28;2.60;91.20
20957;DHT22;10637;47.970;7.830;2023-02-28T04:10:30;2.70;91.60
20957;DHT22;10637;47.970;7.830;2023-02-28T04:15:32;2.70;92.20
20957;DHT22;10637;47.970;7.830;2023-02-28T04:20:34;2.70;92.00
20957;DHT22;10637;47.970;7.830;2023-02-28T04:25:36;2.70;92.20
20957;DHT22;10637;47.970;7.830;2023-02-28T04:30:37;2.60;92.70
20957;DHT22;10637;47.970;7.830;2023-02-28T04:35:40;2.50;93.70
20957;DHT22;10637;47.970;7.830;2023-02-28T04:40:42;2.40;94.60
20957;DHT22;10637;47.970;7.830;2023-02-28T04:45:43;2.20;95.50
20957;DHT22;10637;47.970;7.830;2023-02-28T04:50:45;2.30;95.60
20957;DHT22;10637;47.970;7.830;2023-02-28T04:55:47;2.40;95.00
20957;DHT22;10637;47.970;7.830;2023-02-28T05:00:50;2.30;95.20
20957;DHT22;10637;47.970;7.830;2023-02-28T05:05:52;2.30;95.80
20957;DHT22;10637;47.970;7.830;2023-02-28T05:10:53;2.20;95.70
20957;DHT22;10637;47.970;7.830;2023-02-28T05:15:55;2.20;95.90
20957;DHT22;10637;47.970;7.830;2023-02-28T05:20:57;2.20;95.80
20957;DHT22;10637;47.970;7.830;2023-02-28T05:25:59;2.00;96.20
20957;DHT22;10637;47.970;7.830;2023-02-28T05:31:01;2.10;97.00
20957;DHT22;10637;47.970;7.830;2023-02-28T05:36:03;2.10;97.30
20957;DHT22;10637;47.970;7.830;2023-02-28T05:41:07;2.10;97.70
20957;DHT22;10637;47.970;7.830;2023-02-28T05:46:10;2.10;97.70
20957;DHT22;10637;47.970;7.830;2023-02-28T05:51:12;1.90;98.40
20957;DHT22;10637;47.970;7.830;2023-02-28T05:56:14;1.90;98.80
20957;DHT22;10637;47.970;7.830;2023-02-28T06:01:45;1.80;99.60
20957;DHT22;10637;47.970;7.830;2023-02-28T06:06:50;1.80;99.90
20957;DHT22;10637;47.970;7.830;2023-02-28T06:11:52;1.70;99.90
20957;DHT22;10637;47.970;7.830;2023-02-28T06:16:53;1.70;99.90
20957;DHT22;10637;47.970;7.830;2023-02-28T06:21:58;1.60;99.90
20957;DHT22;10637;47.970;7.830;2023-02-28T06:27:01;1.30;99.90
20957;DHT22;10637;47.970;7.830;2023-02-28T06:32:06;1.30;99.90
20957;DHT22;10637;47.970;7.830;2023-02-28T06:37:08;1.40;99.90
20957;DHT22;10637;47.970;7.830;2023-02-28T06:42:10;1.30;99.90
20957;DHT22;10637;47.970;7.830;2023-02-28T06:47:11;1.40;99.90
20957;DHT22;10637;47.970;7.830;2023-02-28T06:52:14;1.30;99.90
20957;DHT22;10637;47.970;7.830;2023-02-28T06:57:15;1.50;99.90
20957;DHT22;10637;47.970;7.830;2023-02-28T07:02:17;1.50;99.90
20957;DHT22;10637;47.970;7.830;2023-02-28T07:07:19;1.70;99.90
20957;DHT22;10637;47.970;7.830;2023-02-28T07:12:21;1.70;99.90
20957;DHT22;10637;47.970;7.830;2023-02-28T07:17:23;1.80;99.90
20957;DHT22;10637;47.970;7.830;2023-02-28T07:22:25;1.80;99.90
20957;DHT22;10637;47.970;7.830;2023-02-28T07:27:26;1.90;99.90
20957;DHT22;10637;47.970;7.830;2023-02-28T07:32:28;1.70;99.90
20957;DHT22;10637;47.970;7.830;2023-02-28T07:37:30;1.80;99.90
20957;DHT22;10637;47.970;7.830;2023-02-28T07:42:38;2.20;99.90
20957;DHT22;10637;47.970;7.830;2023-02-28T07:47:41;2.40;99.90
20957;DHT22;10637;47.970;7.830;2023-02-28T07:52:43;2.30;99.90
20957;DHT22;10637;47.970;7.830;2023-02-28T07:57:45;2.50;99.90
20957;DHT22;10637;47.970;7.830;2023-02-28T08:02:47;2.40;99.90
20957;DHT22;10637;47.970;7.830;2023-02-28T08:07:49;2.80;99.90
20957;DHT22;10637;47.970;7.830;2023-02-28T08:12:51;2.90;99.90
20957;DHT22;10637;47.970;7.830;2023-02-28T08:17:52;3.50;99.70
20957;DHT22;10637;47.970;7.830;2023-02-28T08:22:54;4.20;98.40
20957;DHT22;10637;47.970;7.830;2023-02-28T08:27:56;4.60;96.60
20957;DHT22;10637;47.970;7.830;2023-02-28T08:32:58;4.80;95.80
20957;DHT22;10637;47.970;7.830;2023-02-28T08:37:59;5.10;95.30
20957;DHT22;10637;47.970;7.830;2023-02-28T08:43:01;5.60;94.20
20957;DHT22;10637;47.970;7.830;2023-02-28T08:48:03;5.60;93.30
20957;DHT22;10637;47.970;7.830;2023-02-28T08:53:05;5.70;93.00
20957;DHT22;10637;47.970;7.830;2023-02-28T08:58:07;5.50;93.10
20957;DHT22;10637;47.970;7.830;2023-02-28T09:03:09;6.60;92.10
20957;DHT22;10637;47.970;7.830;2023-02-28T09:08:10;6.90;90.90
20957;DHT22;10637;47.970;7.830;2023-02-28T09:13:12;6.80;87.90
20957;DHT22;10637;47.970;7.830;2023-02-28T09:18:14;7.90;84.60
20957;DHT22;10637;47.970;7.830;2023-02-28T09:23:16;8.80;81.00
20957;DHT22;10637;47.970;7.830;2023-02-28T09:28:19;9.00;79.60
20957;DHT22;10637;47.970;7.830;2023-02-28T09:33:22;9.10;76.60
20957;DHT22;10637;47.970;7.830;2023-02-28T09:38:24;9.30;74.80
20957;DHT22;10637;47.970;7.830;2023-02-28T09:43:35;10.20;75.50
20957;DHT22;10637;47.970;7.830;2023-02-28T09:48:42;10.80;72.20
20957;DHT22;10637;47.970;7.830;2023-02-28T09:53:45;10.90;71.90
20957;DHT22;10637;47.970;7.830;2023-02-28T09:59:01;11.90;69.30
20957;DHT22;10637;47.970;7.830;2023-02-28T10:04:54;12.20;68.10
20957;DHT22;10637;47.970;7.830;2023-02-28T10:09:32;12.30;66.40
20957;DHT22;10637;47.970;7.830;2023-02-28T10:14:35;11.90;67.60
20957;DHT22;10637;47.970;7.830;2023-02-28T10:20:02;12.60;65.50
20957;DHT22;10637;47.970;7.830;2023-02-28T10:25:23;13.00;64.30
20957;DHT22;10637;47.970;7.830;2023-02-28T10:30:25;13.90;62.50
20957;DHT22;10637;47.970;7.830;2023-02-28T10:35:27;14.00;62.70
20957;DHT22;10637;47.970;7.830;2023-02-28T10:40:33;14.90;60.70
20957;DHT22;10637;47.970;7.830;2023-02-28T10:45:37;16.10;59.30
20957;DHT22;10637;47.970;7.830;2023-02-28T10:50:51;16.10;57.00
20957;DHT22;10637;47.970;7.830;2023-02-28T10:56:00;15.40;57.90
20957;DHT22;10637;47.970;7.830;2023-02-28T11:01:02;15.40;57.60
20957;DHT22;10637;47.970;7.830;2023-02-28T11:06:07;15.80;58.10
20957;DHT22;10637;47.970;7.830;2023-02-28T11:11:09;13.60;58.90
20957;DHT22;10637;47.970;7.830;2023-02-28T11:16:12;13.40;61.70
20957;DHT22;10637;47.970;7.830;2023-02-28T11:26:57;12.10;64.60
20957;DHT22;10637;47.970;7.830;2023-02-28T11:32:12;11.20;67.60
20957;DHT22;10637;47.970;7.830;2023-02-28T11:37:18;11.70;66.40
20957;DHT22;10637;47.970;7.830;2023-02-28T11:42:43;11.50;66.30
20957;DHT22;10637;47.970;7.830;2023-02-28T11:47:51;11.10;66.80
20957;DHT22;10637;47.970;7.830;2023-02-28T11:53:31;10.50;68.20
20957;DHT22;10637;47.970;7.830;2023-02-28T12:10:01;7.80;76.00
20957;DHT22;10637;47.970;7.830;2023-02-28T12:25:55;6.60;79.80
20957;DHT22;10637;47.970;7.830;2023-02-28T12:31:04;6.60;80.80
20957;DHT22;10637;47.970;7.830;2023-02-28T12:36:11;6.50;81.50
20957;DHT22;10637;47.970;7.830;2023-02-28T12:46:34;5.90;84.00
20957;DHT22;10637;47.970;7.830;2023-02-28T12:51:38;6.20;83.70
20957;DHT22;10637;47.970;7.830;2023-02-28T12:57:07;6.20;83.10
20957;DHT22;10637;47.970;7.830;2023-02-28T13:13:15;6.80;80.90
20957;DHT22;10637;47.970;7.830;2023-02-28T13:18:37;7.00;80.80
20957;DHT22;10637;47.970;7.830;2023-02-28T13:24:00;7.40;80.90
20957;DHT22;10637;47.970;7.830;2023-02-28T13:34:17;7.70;79.30
20957;DHT22;10637;47.970;7.830;2023-02-28T13:55:29;8.10;79.90
20957;DHT22;10637;47.970;7.830;2023-02-28T14:05:47;8.10;80.00
20957;DHT22;10637;47.970;7.830;2023-02-28T14:11:25;8.30;79.10
20957;DHT22;10637;47.970;7.830;2023-02-28T14:16:42;8.20;79.30
20957;DHT22;10637;47.970;7.830;2023-02-28T14:22:16;7.60;80.70
20957;DHT22;10637;47.970;7.830;2023-02-28T14:27:44;7.60;80.60
20957;DHT22;10637;47.970;7.830;2023-02-28T14:38:32;7.70;80.10
20957;DHT22;10637;47.970;7.830;2023-02-28T14:43:34;7.60;80.80
20957;DHT22;10637;47.970;7.830;2023-02-28T14:48:37;7.80;81.00
20957;DHT22;10637;47.970;7.830;2023-02-28T14:53:39;8.50;79.70
20957;DHT22;10637;47.970;7.830;2023-02-28T14:58:51;9.00;78.50
20957;DHT22;10637;47.970;7.830;2023-02-28T15:03:58;9.60;75.80
20957;DHT22;10637;47.970;7.830;2023-02-28T15:09:14;9.40;75.30
20957;DHT22;10637;47.970;7.830;2023-02-28T15:14:19;8.70;77.20
20957;DHT22;10637;47.970;7.830;2023-02-28T15:19:26;8.60;77.30
20957;DHT22;10637;47.970;7.830;2023-02-28T15:24:58;8.30;78.00
20957;DHT22;10637;47.970;7.830;2023-02-28T15:30:05;8.00;79.20
20957;DHT22;10637;47.970;7.830;2023-02-28T15:35:37;7.60;79.60
20957;DHT22;10637;47.970;7.830;2023-02-28T15:40:53;7.50;80.30
20957;DHT22;10637;47.970;7.830;2023-02-28T15:46:22;7.50;80.70
20957;DHT22;10637;47.970;7.830;2023-02-28T15:51:33;6.90;81.40
20957;DHT22;10637;47.970;7.830;2023-02-28T15:56:42;6.10;83.30
20957;DHT22;10637;47.970;7.830;2023-02-28T16:01:45;5.80;85.50
20957;DHT22;10637;47.970;7.830;2023-02-28T16:12:02;5.60;86.40
20957;DHT22;10637;47.970;7.830;2023-02-28T16:17:20;5.50;87.00
20957;DHT22;10637;47.970;7.830;2023-02-28T16:22:22;5.40;87.50
20957;DHT22;10637;47.970;7.830;2023-02-28T16:27:31;5.30;87.20
20957;DHT22;10637;47.970;7.830;2023-02-28T16:32:35;5.40;87.30
20957;DHT22;10637;47.970;7.830;2023-02-28T16:37:38;5.70;87.20
20957;DHT22;10637;47.970;7.830;2023-02-28T16:42:39;5.70;87.50
20957;DHT22;10637;47.970;7.830;2023-02-28T16:47:41;5.50;87.30
20957;DHT22;10637;47.970;7.830;2023-02-28T16:52:43;5.50;87.60
20957;DHT22;10637;47.970;7.830;2023-02-28T16:57:53;5.50;87.30
20957;DHT22;10637;47.970;7.830;2023-02-28T17:02:56;5.50;87.70
20957;DHT22;10637;47.970;7.830;2023-02-28T17:07:58;5.30;88.50
20957;DHT22;10637;47.970;7.830;2023-02-28T17:12:59;5.20;90.20
20957;DHT22;10637;47.970;7.830;2023-02-28T17:18:17;5.00;90.50
20957;DHT22;10637;47.970;7.830;2023-02-28T17:23:22;4.90;90.60
20957;DHT22;10637;47.970;7.830;2023-02-28T17:28:24;4.80;91.00
20957;DHT22;10637;47.970;7.830;2023-02-28T17:33:26;4.60;91.30
20957;DHT22;10637;47.970;7.830;2023-02-28T17:38:28;4.50;91.40
20957;DHT22;10637;47.970;7.830;2023-02-28T17:43:29;4.40;91.70
20957;DHT22;10637;47.970;7.830;2023-02-28T17:48:32;4.20;92.40
20957;DHT22;10637;47.970;7.830;2023-02-28T17:53:34;4.20;92.40
20957;DHT22;10637;47.970;7.830;2023-02-28T17:58:36;4.00;93.60
20957;DHT22;10637;47.970;7.830;2023-02-28T18:03:38;3.80;94.20
20957;DHT22;10637;47.970;7.830;2023-02-28T18:08:40;3.60;94.70
20957;DHT22;10637;47.970;7.830;2023-02-28T18:13:47;3.10;95.40
20957;DHT22;10637;47.970;7.830;2023-02-28T18:18:49;3.00;96.50
20957;DHT22;10637;47.970;7.830;2023-02-28T18:23:51;2.80;96.70
20957;DHT22;10637;47.970;7.830;2023-02-28T18:28:53;2.70;97.40
20957;DHT22;10637;47.970;7.830;2023-02-28T18:33:55;2.50;98.00
20957;DHT22;10637;47.970;7.830;2023-02-28T18:38:57;2.50;98.30
20957;DHT22;10637;47.970;7.830;2023-02-28T18:44:00;2.10;99.00
20957;DHT22;10637;47.970;7.830;2023-02-28T18:49:14;1.70;99.90
20957;DHT22;10637;47.970;7.830;2023-02-28T18:54:16;1.80;99.90
20957;DHT22;10637;47.970;7.830;2023-02-28T18:59:18;1.60;99.90
20957;DHT22;10637;47.970;7.830;2023-02-28T19:04:19;1.60;99.90
20957;DHT22;10637;47.970;7.830;2023-02-28T19:09:21;1.50;99.90
20957;DHT22;10637;47.970;7.830;2023-02-28T19:14:23;1.10;99.90
20957;DHT22;10637;47.970;7.830;2023-02-28T19:19:25;1.10;99.90
20957;DHT22;10637;47.970;7.830;2023-02-28T19:24:26;1.40;99.90
20957;DHT22;10637;47.970;7.830;2023-02-28T19:29:28;1.60;99.90
20957;DHT22;10637;47.970;7.830;2023-02-28T19:34:30;1.80;99.90
20957;DHT22;10637;47.970;7.830;2023-02-28T19:39:32;1.60;99.90
20957;DHT22;10637;47.970;7.830;2023-02-28T19:44:42;1.40;99.90
20957;DHT22;10637;47.970;7.830;2023-02-28T19:49:45;1.50;99.90
20957;DHT22;10637;47.970;7.830;2023-02-28T19:54:47;1.60;99.90
20957;DHT22;10637;47.970;7.830;2023-02-28T19:59:49;1.60;99.90
20957;DHT22;10637;47.970;7.830;2023-02-28T20:04:52;1.40;99.90
20957;DHT22;10637;47.970;7.830;2023-02-28T20:09:55;1.40;99.90
20957;DHT22;10637;47.970;7.830;2023-02-28T20:14:57;1.40;99.90
20957;DHT22;10637;47.970;7.830;2023-02-28T20:20:00;1.40;99.90
20957;DHT22;10637;47.970;7.830;2023-02-28T20:25:02;1.40;99.90
20957;DHT22;10637;47.970;7.830;2023-02-28T20:30:05;1.40;99.90
20957;DHT22;10637;47.970;7.830;2023-02-28T20:35:07;1.40;99.90
20957;DHT22;10637;47.970;7.830;2023-02-28T20:40:12;1.40;99.90
20957;DHT22;10637;47.970;7.830;2023-02-28T20:45:14;1.20;99.90
20957;DHT22;10637;47.970;7.830;2023-02-28T20:50:16;1.20;99.90
20957;DHT22;10637;47.970;7.830;2023-02-28T20:55:18;1.20;99.90
20957;DHT22;10637;47.970;7.830;2023-02-28T21:00:20;1.30;99.90
20957;DHT22;10637;47.970;7.830;2023-02-28T21:05:23;1.20;99.90
20957;DHT22;10637;47.970;7.830;2023-02-28T21:10:25;1.10;99.90
20957;DHT22;10637;47.970;7.830;2023-02-28T21:15:26;1.00;99.90
20957;DHT22;10637;47.970;7.830;2023-02-28T21:20:28;1.00;99.90
20957;DHT22;10637;47.970;7.830;2023-02-28T21:25:31;1.00;99.90
20957;DHT22;10637;47.970;7.830;2023-02-28T21:30:33;1.10;99.90
20957;DHT22;10637;47.970;7.830;2023-02-28T21:35:36;1.00;99.90
20957;DHT22;10637;47.970;7.830;2023-02-28T21:40:38;1.00;99.90
20957;DHT22;10637;47.970;7.830;2023-02-28T21:45:40;1.00;99.90
20957;DHT22;10637;47.970;7.830;2023-02-28T21:50:41;0.90;99.90
20957;DHT22;10637;47.970;7.830;2023-02-28T21:55:43;1.10;99.90
20957;DHT22;10637;47.970;7.830;2023-02-28T22:00:45;0.90;99.90
20957;DHT22;10637;47.970;7.830;2023-02-28T22:05:47;0.90;99.90
20957;DHT22;10637;47.970;7.830;2023-02-28T22:10:48;0.80;99.90
20957;DHT22;10637;47.970;7.830;2023-02-28T22:15:50;0.80;99.90
20957;DHT22;10637;47.970;7.830;2023-02-28T22:20:55;0.80;99.90
20957;DHT22;10637;47.970;7.830;2023-02-28T22:26:00;0.50;99.90
20957;DHT22;10637;47.970;7.830;2023-02-28T22:36:16;0.20;99.90
20957;DHT22;10637;47.970;7.830;2023-02-28T22:41:21;-0.10;99.90
20957;DHT22;10637;47.970;7.830;2023-02-28T22:46:25;-0.10;99.90
20957;DHT22;10637;47.970;7.830;2023-02-28T22:51:29;0.10;99.90
20957;DHT22;10637;47.970;7.830;2023-02-28T22:56:31;0.40;99.90
20957;DHT22;10637;47.970;7.830;2023-02-28T23:01:33;0.20;99.90
20957;DHT22;10637;47.970;7.830;2023-02-28T23:06:37;0.30;99.90
20957;DHT22;10637;47.970;7.830;2023-02-28T23:11:45;0.20;99.90
20957;DHT22;10637;47.970;7.830;2023-02-28T23:16:49;0.20;99.90
20957;DHT22;10637;47.970;7.830;2023-02-28T23:21:52;0.20;99.90
20957;DHT22;10637;47.970;7.830;2023-02-28T23:26:56;0.10;99.90
20957;DHT22;10637;47.970;7.830;2023-02-28T23:31:58;0.10;99.90
20957;DHT22;10637;47.970;7.830;2023-02-28T23:37:01;0.00;99.90
20957;DHT22;10637;47.970;7.830;2023-02-28T23:42:02;-0.10;99.90
20957;DHT22;10637;47.970;7.830;2023-02-28T23:47:04;0.00;99.90
20957;DHT22;10637;47.970;7.830;2023-02-28T23:52:06;-0.10;99.90
20957;DHT22;10637;47.970;7.830;2023-02-28T23:57:08;0.00;99.90
